createdAt,value
2018-12-27T15:56:54.082Z,19.60
2018-12-27T16:01:57.513Z,18.17
2018-12-27T16:07:01.895Z,26.53
2018-12-27T16:12:05.673Z,23.00
2018-12-27T16:17:09.122Z,21.47
2018-12-27T16:22:12.809Z,19.70
2018-12-27T16:27:16.243Z,22.43
2018-12-27T16:32:19.687Z,17.23
2018-12-27T16:37:23.121Z,20.53
2018-12-27T16:42:26.564Z,22.23
2018-12-27T16:47:29.994Z,22.97
2018-12-27T16:52:33.503Z,31.13
2018-12-27T16:57:36.959Z,24.53
2018-12-27T17:02:40.408Z,25.13
2018-12-27T17:07:43.838Z,23.60
2018-12-27T17:12:47.287Z,22.67
2018-12-27T17:17:50.726Z,28.03
2018-12-27T17:22:54.183Z,25.97
2018-12-27T17:27:57.606Z,31.20
2018-12-27T17:33:01.043Z,37.27
2018-12-27T17:38:04.513Z,40.80
2018-12-27T17:43:07.956Z,45.63
2018-12-27T17:48:11.413Z,33.53
2018-12-27T17:53:14.853Z,32.10
2018-12-27T17:58:18.296Z,32.40
2018-12-27T18:03:21.817Z,40.07
2018-12-27T18:08:25.259Z,38.77
2018-12-27T18:13:28.690Z,31.60
2018-12-27T18:18:32.132Z,33.13
2018-12-27T18:23:35.571Z,34.67
2018-12-27T18:28:39.017Z,37.00
2018-12-27T18:33:42.458Z,33.43
2018-12-27T18:38:45.924Z,32.57
2018-12-27T18:43:49.353Z,27.97
2018-12-27T18:48:52.798Z,26.27
2018-12-27T18:53:56.284Z,26.93
2018-12-27T18:58:59.729Z,27.30
2018-12-27T19:04:03.158Z,23.33
2018-12-27T19:09:07.471Z,21.97
2018-12-27T19:14:10.915Z,23.53
2018-12-27T19:19:14.356Z,23.73
2018-12-27T19:24:17.803Z,23.60
2018-12-27T19:29:21.234Z,24.93
2018-12-27T19:34:24.667Z,22.03
2018-12-27T19:39:28.118Z,23.43
2018-12-27T19:44:31.553Z,23.40
2018-12-27T19:49:34.980Z,23.23
2018-12-27T19:54:38.459Z,22.33
2018-12-27T19:59:41.898Z,22.70
2018-12-27T20:04:45.328Z,21.17
2018-12-27T20:09:48.782Z,25.57
2018-12-27T20:14:52.230Z,23.97
2018-12-27T20:19:55.665Z,20.40
2018-12-27T20:24:59.176Z,23.33
2018-12-27T20:30:02.618Z,23.97
2018-12-27T20:35:06.059Z,24.37
2018-12-27T20:40:09.494Z,22.73
2018-12-27T20:45:12.941Z,20.40
2018-12-27T20:50:16.476Z,22.60
2018-12-27T20:55:19.919Z,27.43
2018-12-27T21:00:23.481Z,23.80
2018-12-27T21:05:26.971Z,27.87
2018-12-27T21:10:30.469Z,29.27
2018-12-27T21:15:33.889Z,26.73
2018-12-27T21:20:37.707Z,28.73
2018-12-27T21:25:41.652Z,31.20
2018-12-27T21:30:45.109Z,27.73
2018-12-27T21:35:48.550Z,27.17
2018-12-27T21:40:52.099Z,29.23
2018-12-27T21:45:55.538Z,28.57
2018-12-27T21:50:58.985Z,30.17
2018-12-27T21:56:02.432Z,26.27
2018-12-27T22:01:05.880Z,28.50
2018-12-27T22:06:09.320Z,25.67
2018-12-27T22:11:12.802Z,27.93
2018-12-27T22:16:16.652Z,36.87
2018-12-27T22:21:20.109Z,48.53
2018-12-27T22:26:23.598Z,30.30
2018-12-27T22:31:27.084Z,30.10
2018-12-27T22:36:30.532Z,32.60
2018-12-27T22:41:37.463Z,28.20
2018-12-27T22:46:40.904Z,30.90
2018-12-27T22:51:44.343Z,33.47
2018-12-27T22:56:47.775Z,26.93
2018-12-27T23:01:51.288Z,29.40
2018-12-27T23:06:54.712Z,31.77
2018-12-27T23:11:58.140Z,26.00
2018-12-27T23:17:01.567Z,27.60
2018-12-27T23:22:05.014Z,32.10
2018-12-27T23:27:08.446Z,30.60
2018-12-27T23:32:11.898Z,32.47
2018-12-27T23:37:15.350Z,31.63
2018-12-27T23:42:18.783Z,36.60
2018-12-27T23:47:22.227Z,29.23
2018-12-27T23:52:25.664Z,29.77
2018-12-27T23:57:29.091Z,27.60
